sensor_id;sensor_type;location;lat;lon;timestamp;P1;durP1;ratioP1;P2;durP2;ratioP2
6638;SDS011;3355;52.882;8.430;2023-08-06T00:00:19;4.10;;;3.40;;
6638;SDS011;3355;52.882;8.430;2023-08-06T00:02:47;6.30;;;4.27;;
6638;SDS011;3355;52.882;8.430;2023-08-06T00:05:22;3.63;;;2.67;;
6638;SDS011;3355;52.882;8.430;2023-08-06T00:07:54;5.50;;;2.67;;
6638;SDS011;3355;52.882;8.430;2023-08-06T00:10:33;5.53;;;3.50;;
6638;SDS011;3355;52.882;8.430;2023-08-06T00:13:12;4.23;;;3.27;;
6638;SDS011;3355;52.882;8.430;2023-08-06T00:15:41;4.60;;;2.83;;
6638;SDS011;3355;52.882;8.430;2023-08-06T00:18:25;4.50;;;3.20;;
6638;SDS011;3355;52.882;8.430;2023-08-06T00:20:56;3.87;;;3.27;;
6638;SDS011;3355;52.882;8.430;2023-08-06T00:23:28;3.87;;;3.17;;
6638;SDS011;3355;52.882;8.430;2023-08-06T00:26:00;3.70;;;2.50;;
6638;SDS011;3355;52.882;8.430;2023-08-06T00:28:31;6.40;;;3.43;;
6638;SDS011;3355;52.882;8.430;2023-08-06T00:31:01;5.23;;;3.73;;
6638;SDS011;3355;52.882;8.430;2023-08-06T00:33:51;3.53;;;3.23;;
6638;SDS011;3355;52.882;8.430;2023-08-06T00:36:33;3.73;;;3.33;;
6638;SDS011;3355;52.882;8.430;2023-08-06T00:39:08;3.90;;;3.37;;
6638;SDS011;3355;52.882;8.430;2023-08-06T00:41:38;4.20;;;3.17;;
6638;SDS011;3355;52.882;8.430;2023-08-06T00:44:08;4.47;;;3.73;;
6638;SDS011;3355;52.882;8.430;2023-08-06T00:46:45;3.33;;;3.03;;
6638;SDS011;3355;52.882;8.430;2023-08-06T00:49:15;4.23;;;3.20;;
6638;SDS011;3355;52.882;8.430;2023-08-06T00:51:44;3.73;;;3.20;;
6638;SDS011;3355;52.882;8.430;2023-08-06T00:54:14;4.83;;;3.27;;
6638;SDS011;3355;52.882;8.430;2023-08-06T00:56:42;3.70;;;3.30;;
6638;SDS011;3355;52.882;8.430;2023-08-06T00:59:21;3.60;;;3.17;;
6638;SDS011;3355;52.882;8.430;2023-08-06T01:01:56;7.20;;;3.60;;
6638;SDS011;3355;52.882;8.430;2023-08-06T01:04:28;4.10;;;3.63;;
6638;SDS011;3355;52.882;8.430;2023-08-06T01:07:02;4.77;;;3.50;;
6638;SDS011;3355;52.882;8.430;2023-08-06T01:09:45;3.97;;;3.10;;
6638;SDS011;3355;52.882;8.430;2023-08-06T01:12:25;3.90;;;2.87;;
6638;SDS011;3355;52.882;8.430;2023-08-06T01:15:13;4.10;;;3.43;;
6638;SDS011;3355;52.882;8.430;2023-08-06T01:17:48;5.67;;;3.43;;
6638;SDS011;3355;52.882;8.430;2023-08-06T01:20:18;4.80;;;3.63;;
6638;SDS011;3355;52.882;8.430;2023-08-06T01:23:01;4.13;;;3.73;;
6638;SDS011;3355;52.882;8.430;2023-08-06T01:25:38;6.97;;;3.80;;
6638;SDS011;3355;52.882;8.430;2023-08-06T01:28:11;4.03;;;3.43;;
6638;SDS011;3355;52.882;8.430;2023-08-06T01:30:52;4.00;;;3.43;;
6638;SDS011;3355;52.882;8.430;2023-08-06T01:33:25;4.03;;;3.40;;
6638;SDS011;3355;52.882;8.430;2023-08-06T01:35:59;3.97;;;3.30;;
6638;SDS011;3355;52.882;8.430;2023-08-06T01:38:37;3.67;;;3.20;;
6638;SDS011;3355;52.882;8.430;2023-08-06T01:41:16;4.27;;;3.47;;
6638;SDS011;3355;52.882;8.430;2023-08-06T01:43:51;3.83;;;2.90;;
6638;SDS011;3355;52.882;8.430;2023-08-06T01:46:19;4.70;;;3.50;;
6638;SDS011;3355;52.882;8.430;2023-08-06T01:48:55;3.83;;;3.43;;
6638;SDS011;3355;52.882;8.430;2023-08-06T01:51:22;5.23;;;3.70;;
6638;SDS011;3355;52.882;8.430;2023-08-06T01:56:54;6.37;;;3.70;;
6638;SDS011;3355;52.882;8.430;2023-08-06T01:59:45;4.27;;;3.70;;
6638;SDS011;3355;52.882;8.430;2023-08-06T02:02:29;4.50;;;2.87;;
6638;SDS011;3355;52.882;8.430;2023-08-06T02:05:16;4.30;;;3.40;;
6638;SDS011;3355;52.882;8.430;2023-08-06T02:07:46;4.37;;;3.37;;
6638;SDS011;3355;52.882;8.430;2023-08-06T02:10:23;4.43;;;3.33;;
6638;SDS011;3355;52.882;8.430;2023-08-06T02:13:06;4.30;;;3.37;;
6638;SDS011;3355;52.882;8.430;2023-08-06T02:15:36;4.30;;;3.50;;
6638;SDS011;3355;52.882;8.430;2023-08-06T02:18:16;5.27;;;3.50;;
6638;SDS011;3355;52.882;8.430;2023-08-06T02:20:54;3.97;;;3.53;;
6638;SDS011;3355;52.882;8.430;2023-08-06T02:23:35;3.67;;;3.37;;
6638;SDS011;3355;52.882;8.430;2023-08-06T02:26:38;6.03;;;3.57;;
6638;SDS011;3355;52.882;8.430;2023-08-06T02:29:30;4.20;;;3.77;;
6638;SDS011;3355;52.882;8.430;2023-08-06T02:32:20;4.30;;;3.77;;
6638;SDS011;3355;52.882;8.430;2023-08-06T02:34:54;4.63;;;4.13;;
6638;SDS011;3355;52.882;8.430;2023-08-06T02:38:05;6.23;;;3.90;;
6638;SDS011;3355;52.882;8.430;2023-08-06T02:41:01;6.63;;;3.73;;
6638;SDS011;3355;52.882;8.430;2023-08-06T02:43:32;6.50;;;4.33;;
6638;SDS011;3355;52.882;8.430;2023-08-06T02:46:15;5.23;;;4.23;;
6638;SDS011;3355;52.882;8.430;2023-08-06T02:49:02;4.37;;;3.97;;
6638;SDS011;3355;52.882;8.430;2023-08-06T02:51:51;5.20;;;4.17;;
6638;SDS011;3355;52.882;8.430;2023-08-06T02:55:06;4.97;;;4.27;;
6638;SDS011;3355;52.882;8.430;2023-08-06T02:57:51;5.27;;;4.07;;
6638;SDS011;3355;52.882;8.430;2023-08-06T03:00:42;4.50;;;3.60;;
6638;SDS011;3355;52.882;8.430;2023-08-06T03:03:19;4.80;;;4.30;;
6638;SDS011;3355;52.882;8.430;2023-08-06T03:05:54;5.03;;;4.40;;
6638;SDS011;3355;52.882;8.430;2023-08-06T03:08:28;5.10;;;4.20;;
6638;SDS011;3355;52.882;8.430;2023-08-06T03:11:22;4.40;;;4.00;;
6638;SDS011;3355;52.882;8.430;2023-08-06T03:14:02;4.50;;;4.10;;
6638;SDS011;3355;52.882;8.430;2023-08-06T03:16:35;4.70;;;4.20;;
6638;SDS011;3355;52.882;8.430;2023-08-06T03:19:18;4.97;;;4.47;;
6638;SDS011;3355;52.882;8.430;2023-08-06T03:21:47;4.20;;;3.80;;
6638;SDS011;3355;52.882;8.430;2023-08-06T03:24:16;4.83;;;4.33;;
6638;SDS011;3355;52.882;8.430;2023-08-06T03:29:44;7.13;;;4.37;;
6638;SDS011;3355;52.882;8.430;2023-08-06T03:33:02;4.60;;;4.20;;
6638;SDS011;3355;52.882;8.430;2023-08-06T03:41:56;4.57;;;4.17;;
6638;SDS011;3355;52.882;8.430;2023-08-06T03:48:12;5.60;;;4.97;;
6638;SDS011;3355;52.882;8.430;2023-08-06T03:50:58;6.03;;;4.90;;
6638;SDS011;3355;52.882;8.430;2023-08-06T03:54:17;5.10;;;4.13;;
6638;SDS011;3355;52.882;8.430;2023-08-06T03:57:07;5.90;;;4.63;;
6638;SDS011;3355;52.882;8.430;2023-08-06T03:59:53;5.57;;;4.33;;
6638;SDS011;3355;52.882;8.430;2023-08-06T04:03:14;4.73;;;4.20;;
6638;SDS011;3355;52.882;8.430;2023-08-06T04:06:10;5.20;;;4.70;;
6638;SDS011;3355;52.882;8.430;2023-08-06T04:15:46;5.90;;;5.10;;
6638;SDS011;3355;52.882;8.430;2023-08-06T04:18:36;6.47;;;5.50;;
6638;SDS011;3355;52.882;8.430;2023-08-06T04:21:49;6.83;;;4.70;;
6638;SDS011;3355;52.882;8.430;2023-08-06T04:24:23;6.80;;;5.97;;
6638;SDS011;3355;52.882;8.430;2023-08-06T04:26:54;6.90;;;5.77;;
6638;SDS011;3355;52.882;8.430;2023-08-06T04:29:54;7.90;;;5.50;;
6638;SDS011;3355;52.882;8.430;2023-08-06T04:32:46;6.17;;;5.57;;
6638;SDS011;3355;52.882;8.430;2023-08-06T04:35:41;8.53;;;5.63;;
6638;SDS011;3355;52.882;8.430;2023-08-06T04:38:39;5.73;;;5.00;;
6638;SDS011;3355;52.882;8.430;2023-08-06T04:41:12;5.70;;;5.10;;
6638;SDS011;3355;52.882;8.430;2023-08-06T04:56:09;6.53;;;5.83;;
6638;SDS011;3355;52.882;8.430;2023-08-06T04:59:10;6.10;;;5.50;;
6638;SDS011;3355;52.882;8.430;2023-08-06T05:06:41;6.00;;;5.40;;
6638;SDS011;3355;52.882;8.430;2023-08-06T06:09:45;8.50;;;7.33;;
6638;SDS011;3355;52.882;8.430;2023-08-06T06:12:12;7.20;;;6.50;;
6638;SDS011;3355;52.882;8.430;2023-08-06T06:14:38;10.17;;;6.80;;
6638;SDS011;3355;52.882;8.430;2023-08-06T06:17:05;8.80;;;7.60;;
6638;SDS011;3355;52.882;8.430;2023-08-06T06:19:31;8.80;;;7.20;;
6638;SDS011;3355;52.882;8.430;2023-08-06T06:21:58;7.57;;;6.83;;
6638;SDS011;3355;52.882;8.430;2023-08-06T06:24:24;7.83;;;7.03;;
6638;SDS011;3355;52.882;8.430;2023-08-06T06:26:52;8.07;;;7.07;;
6638;SDS011;3355;52.882;8.430;2023-08-06T06:29:18;8.70;;;7.00;;
6638;SDS011;3355;52.882;8.430;2023-08-06T06:31:45;10.33;;;6.77;;
6638;SDS011;3355;52.882;8.430;2023-08-06T06:34:11;6.83;;;6.17;;
6638;SDS011;3355;52.882;8.430;2023-08-06T06:36:38;8.37;;;6.37;;
6638;SDS011;3355;52.882;8.430;2023-08-06T06:39:04;8.33;;;7.43;;
6638;SDS011;3355;52.882;8.430;2023-08-06T06:41:31;7.57;;;6.80;;
6638;SDS011;3355;52.882;8.430;2023-08-06T06:43:59;7.40;;;5.90;;
6638;SDS011;3355;52.882;8.430;2023-08-06T06:46:26;7.57;;;6.13;;
6638;SDS011;3355;52.882;8.430;2023-08-06T06:48:52;8.73;;;7.13;;
6638;SDS011;3355;52.882;8.430;2023-08-06T06:51:19;7.83;;;6.80;;
6638;SDS011;3355;52.882;8.430;2023-08-06T06:53:45;8.27;;;7.20;;
6638;SDS011;3355;52.882;8.430;2023-08-06T06:56:12;7.40;;;6.70;;
6638;SDS011;3355;52.882;8.430;2023-08-06T06:58:38;7.70;;;7.00;;
6638;SDS011;3355;52.882;8.430;2023-08-06T07:01:07;7.57;;;6.90;;
6638;SDS011;3355;52.882;8.430;2023-08-06T07:03:35;6.80;;;6.10;;
6638;SDS011;3355;52.882;8.430;2023-08-06T07:06:01;8.00;;;5.53;;
6638;SDS011;3355;52.882;8.430;2023-08-06T07:08:28;7.87;;;6.90;;
6638;SDS011;3355;52.882;8.430;2023-08-06T07:10:59;8.90;;;6.20;;
6638;SDS011;3355;52.882;8.430;2023-08-06T07:13:26;7.70;;;6.90;;
6638;SDS011;3355;52.882;8.430;2023-08-06T07:15:53;7.20;;;6.50;;
6638;SDS011;3355;52.882;8.430;2023-08-06T07:18:21;6.47;;;5.87;;
6638;SDS011;3355;52.882;8.430;2023-08-06T07:20:48;6.40;;;5.70;;
6638;SDS011;3355;52.882;8.430;2023-08-06T07:23:15;6.37;;;5.77;;
6638;SDS011;3355;52.882;8.430;2023-08-06T07:25:41;7.57;;;6.00;;
6638;SDS011;3355;52.882;8.430;2023-08-06T07:28:08;7.33;;;6.47;;
6638;SDS011;3355;52.882;8.430;2023-08-06T07:30:38;6.33;;;5.20;;
6638;SDS011;3355;52.882;8.430;2023-08-06T07:33:04;6.30;;;5.70;;
6638;SDS011;3355;52.882;8.430;2023-08-06T07:35:32;6.40;;;5.80;;
6638;SDS011;3355;52.882;8.430;2023-08-06T07:37:59;5.87;;;5.30;;
6638;SDS011;3355;52.882;8.430;2023-08-06T07:40:25;6.03;;;5.43;;
6638;SDS011;3355;52.882;8.430;2023-08-06T07:42:52;5.97;;;4.83;;
6638;SDS011;3355;52.882;8.430;2023-08-06T07:45:18;6.67;;;6.03;;
6638;SDS011;3355;52.882;8.430;2023-08-06T07:47:45;6.37;;;5.77;;
6638;SDS011;3355;52.882;8.430;2023-08-06T07:50:11;7.13;;;5.40;;
6638;SDS011;3355;52.882;8.430;2023-08-06T07:52:39;5.80;;;5.30;;
6638;SDS011;3355;52.882;8.430;2023-08-06T07:55:06;4.67;;;4.27;;
6638;SDS011;3355;52.882;8.430;2023-08-06T07:57:33;4.30;;;3.90;;
6638;SDS011;3355;52.882;8.430;2023-08-06T08:00:00;4.37;;;3.87;;
6638;SDS011;3355;52.882;8.430;2023-08-06T08:02:27;5.07;;;4.57;;
6638;SDS011;3355;52.882;8.430;2023-08-06T08:04:55;5.00;;;4.50;;
6638;SDS011;3355;52.882;8.430;2023-08-06T08:07:21;4.40;;;4.00;;
6638;SDS011;3355;52.882;8.430;2023-08-06T08:09:49;4.53;;;4.13;;
6638;SDS011;3355;52.882;8.430;2023-08-06T08:12:16;5.67;;;4.33;;
6638;SDS011;3355;52.882;8.430;2023-08-06T08:14:42;5.63;;;3.93;;
6638;SDS011;3355;52.882;8.430;2023-08-06T08:17:10;4.10;;;3.70;;
6638;SDS011;3355;52.882;8.430;2023-08-06T08:19:37;4.10;;;3.50;;
6638;SDS011;3355;52.882;8.430;2023-08-06T08:22:03;4.47;;;3.03;;
6638;SDS011;3355;52.882;8.430;2023-08-06T08:24:30;3.50;;;3.20;;
6638;SDS011;3355;52.882;8.430;2023-08-06T08:26:58;4.00;;;3.40;;
6638;SDS011;3355;52.882;8.430;2023-08-06T08:29:24;3.87;;;3.50;;
6638;SDS011;3355;52.882;8.430;2023-08-06T08:31:51;3.77;;;3.30;;
6638;SDS011;3355;52.882;8.430;2023-08-06T08:34:17;3.70;;;3.40;;
6638;SDS011;3355;52.882;8.430;2023-08-06T08:36:44;3.50;;;3.17;;
6638;SDS011;3355;52.882;8.430;2023-08-06T08:39:12;4.13;;;3.63;;
6638;SDS011;3355;52.882;8.430;2023-08-06T08:41:38;3.43;;;3.13;;
6638;SDS011;3355;52.882;8.430;2023-08-06T08:44:08;3.80;;;3.50;;
6638;SDS011;3355;52.882;8.430;2023-08-06T08:46:35;4.17;;;3.40;;
6638;SDS011;3355;52.882;8.430;2023-08-06T08:49:03;4.00;;;3.57;;
6638;SDS011;3355;52.882;8.430;2023-08-06T08:51:30;4.30;;;3.73;;
6638;SDS011;3355;52.882;8.430;2023-08-06T08:53:56;3.93;;;3.53;;
6638;SDS011;3355;52.882;8.430;2023-08-06T08:56:23;3.23;;;2.93;;
6638;SDS011;3355;52.882;8.430;2023-08-06T08:58:50;4.00;;;3.60;;
6638;SDS011;3355;52.882;8.430;2023-08-06T09:01:19;3.87;;;3.57;;
6638;SDS011;3355;52.882;8.430;2023-08-06T09:03:46;3.80;;;3.40;;
6638;SDS011;3355;52.882;8.430;2023-08-06T09:06:13;4.00;;;3.30;;
6638;SDS011;3355;52.882;8.430;2023-08-06T09:08:41;3.00;;;2.70;;
6638;SDS011;3355;52.882;8.430;2023-08-06T09:11:21;4.00;;;3.63;;
6638;SDS011;3355;52.882;8.430;2023-08-06T09:13:47;3.17;;;2.87;;
6638;SDS011;3355;52.882;8.430;2023-08-06T09:16:14;3.63;;;2.63;;
6638;SDS011;3355;52.882;8.430;2023-08-06T09:18:42;4.43;;;3.60;;
6638;SDS011;3355;52.882;8.430;2023-08-06T09:21:13;6.70;;;3.30;;
6638;SDS011;3355;52.882;8.430;2023-08-06T09:23:40;3.90;;;3.50;;
6638;SDS011;3355;52.882;8.430;2023-08-06T09:26:06;3.73;;;3.13;;
6638;SDS011;3355;52.882;8.430;2023-08-06T09:28:36;4.27;;;3.40;;
6638;SDS011;3355;52.882;8.430;2023-08-06T09:31:04;4.47;;;3.87;;
6638;SDS011;3355;52.882;8.430;2023-08-06T09:33:35;4.47;;;3.00;;
6638;SDS011;3355;52.882;8.430;2023-08-06T09:36:08;3.30;;;3.00;;
6638;SDS011;3355;52.882;8.430;2023-08-06T09:38:37;3.13;;;2.83;;
6638;SDS011;3355;52.882;8.430;2023-08-06T09:41:04;3.50;;;3.10;;
6638;SDS011;3355;52.882;8.430;2023-08-06T09:43:31;2.87;;;2.37;;
6638;SDS011;3355;52.882;8.430;2023-08-06T09:46:10;4.10;;;3.70;;
6638;SDS011;3355;52.882;8.430;2023-08-06T09:48:38;3.57;;;3.27;;
6638;SDS011;3355;52.882;8.430;2023-08-06T09:51:04;4.80;;;3.07;;
6638;SDS011;3355;52.882;8.430;2023-08-06T09:53:33;4.07;;;2.60;;
6638;SDS011;3355;52.882;8.430;2023-08-06T09:56:00;4.03;;;2.70;;
6638;SDS011;3355;52.882;8.430;2023-08-06T09:58:27;2.90;;;2.60;;
6638;SDS011;3355;52.882;8.430;2023-08-06T10:00:54;3.97;;;2.80;;
6638;SDS011;3355;52.882;8.430;2023-08-06T10:03:20;3.30;;;3.00;;
6638;SDS011;3355;52.882;8.430;2023-08-06T10:05:47;3.00;;;2.60;;
6638;SDS011;3355;52.882;8.430;2023-08-06T10:08:14;2.90;;;2.50;;
6638;SDS011;3355;52.882;8.430;2023-08-06T10:10:42;3.27;;;2.40;;
6638;SDS011;3355;52.882;8.430;2023-08-06T10:13:09;2.80;;;1.63;;
6638;SDS011;3355;52.882;8.430;2023-08-06T10:15:36;2.50;;;2.07;;
6638;SDS011;3355;52.882;8.430;2023-08-06T10:18:03;3.10;;;2.50;;
6638;SDS011;3355;52.882;8.430;2023-08-06T10:20:32;3.67;;;2.80;;
6638;SDS011;3355;52.882;8.430;2023-08-06T10:23:00;2.80;;;2.50;;
6638;SDS011;3355;52.882;8.430;2023-08-06T10:25:30;4.20;;;2.60;;
6638;SDS011;3355;52.882;8.430;2023-08-06T10:27:58;3.10;;;2.70;;
6638;SDS011;3355;52.882;8.430;2023-08-06T10:30:25;3.43;;;3.13;;
6638;SDS011;3355;52.882;8.430;2023-08-06T10:32:52;2.50;;;2.30;;
6638;SDS011;3355;52.882;8.430;2023-08-06T10:35:29;2.80;;;2.47;;
6638;SDS011;3355;52.882;8.430;2023-08-06T10:38:00;4.67;;;2.63;;
6638;SDS011;3355;52.882;8.430;2023-08-06T10:40:29;3.27;;;2.90;;
6638;SDS011;3355;52.882;8.430;2023-08-06T10:42:57;3.90;;;3.00;;
6638;SDS011;3355;52.882;8.430;2023-08-06T10:45:25;3.03;;;2.67;;
6638;SDS011;3355;52.882;8.430;2023-08-06T10:47:54;2.87;;;2.57;;
6638;SDS011;3355;52.882;8.430;2023-08-06T10:50:21;3.03;;;2.73;;
6638;SDS011;3355;52.882;8.430;2023-08-06T10:52:47;3.30;;;2.67;;
6638;SDS011;3355;52.882;8.430;2023-08-06T10:55:14;3.60;;;2.50;;
6638;SDS011;3355;52.882;8.430;2023-08-06T10:57:41;2.80;;;2.13;;
6638;SDS011;3355;52.882;8.430;2023-08-06T11:00:09;3.90;;;2.80;;
6638;SDS011;3355;52.882;8.430;2023-08-06T11:02:38;2.90;;;2.60;;
6638;SDS011;3355;52.882;8.430;2023-08-06T11:05:08;2.90;;;2.60;;
6638;SDS011;3355;52.882;8.430;2023-08-06T11:07:35;3.53;;;2.80;;
6638;SDS011;3355;52.882;8.430;2023-08-06T11:10:03;3.70;;;3.37;;
6638;SDS011;3355;52.882;8.430;2023-08-06T11:12:30;3.80;;;3.30;;
6638;SDS011;3355;52.882;8.430;2023-08-06T11:14:56;4.20;;;3.80;;
6638;SDS011;3355;52.882;8.430;2023-08-06T11:17:24;4.60;;;3.57;;
6638;SDS011;3355;52.882;8.430;2023-08-06T11:19:51;4.47;;;4.07;;
6638;SDS011;3355;52.882;8.430;2023-08-06T11:22:18;5.63;;;5.03;;
6638;SDS011;3355;52.882;8.430;2023-08-06T11:24:45;4.97;;;4.57;;
6638;SDS011;3355;52.882;8.430;2023-08-06T11:27:12;7.60;;;5.10;;
6638;SDS011;3355;52.882;8.430;2023-08-06T11:29:39;6.03;;;5.53;;
6638;SDS011;3355;52.882;8.430;2023-08-06T11:32:06;5.73;;;5.20;;
6638;SDS011;3355;52.882;8.430;2023-08-06T11:34:34;5.20;;;4.70;;
6638;SDS011;3355;52.882;8.430;2023-08-06T11:37:02;6.00;;;5.43;;
6638;SDS011;3355;52.882;8.430;2023-08-06T11:39:30;4.77;;;4.27;;
6638;SDS011;3355;52.882;8.430;2023-08-06T11:41:57;4.93;;;4.13;;
6638;SDS011;3355;52.882;8.430;2023-08-06T11:44:25;4.50;;;4.10;;
6638;SDS011;3355;52.882;8.430;2023-08-06T11:46:52;4.80;;;4.37;;
6638;SDS011;3355;52.882;8.430;2023-08-06T11:49:21;5.17;;;4.67;;
6638;SDS011;3355;52.882;8.430;2023-08-06T11:52:08;6.53;;;5.10;;
6638;SDS011;3355;52.882;8.430;2023-08-06T11:54:36;4.13;;;3.73;;
6638;SDS011;3355;52.882;8.430;2023-08-06T11:57:03;5.93;;;4.80;;
6638;SDS011;3355;52.882;8.430;2023-08-06T11:59:31;4.53;;;3.90;;
6638;SDS011;3355;52.882;8.430;2023-08-06T12:01:57;3.90;;;3.53;;
6638;SDS011;3355;52.882;8.430;2023-08-06T12:04:24;4.50;;;3.80;;
6638;SDS011;3355;52.882;8.430;2023-08-06T12:06:50;4.50;;;4.10;;
6638;SDS011;3355;52.882;8.430;2023-08-06T12:09:19;4.63;;;3.53;;
6638;SDS011;3355;52.882;8.430;2023-08-06T12:11:46;3.70;;;3.40;;
6638;SDS011;3355;52.882;8.430;2023-08-06T12:14:13;4.00;;;3.60;;
6638;SDS011;3355;52.882;8.430;2023-08-06T12:16:39;4.13;;;3.73;;
6638;SDS011;3355;52.882;8.430;2023-08-06T12:19:06;3.60;;;3.30;;
6638;SDS011;3355;52.882;8.430;2023-08-06T12:21:32;3.70;;;3.40;;
6638;SDS011;3355;52.882;8.430;2023-08-06T12:23:59;3.13;;;2.83;;
6638;SDS011;3355;52.882;8.430;2023-08-06T12:26:26;3.10;;;2.17;;
6638;SDS011;3355;52.882;8.430;2023-08-06T12:28:53;3.17;;;2.27;;
6638;SDS011;3355;52.882;8.430;2023-08-06T12:31:22;2.47;;;2.03;;
6638;SDS011;3355;52.882;8.430;2023-08-06T12:33:48;2.43;;;1.83;;
6638;SDS011;3355;52.882;8.430;2023-08-06T12:36:15;2.27;;;1.83;;
6638;SDS011;3355;52.882;8.430;2023-08-06T12:38:42;2.50;;;2.30;;
6638;SDS011;3355;52.882;8.430;2023-08-06T12:41:08;2.40;;;2.07;;
6638;SDS011;3355;52.882;8.430;2023-08-06T12:43:36;2.97;;;1.93;;
6638;SDS011;3355;52.882;8.430;2023-08-06T12:46:03;2.67;;;1.90;;
6638;SDS011;3355;52.882;8.430;2023-08-06T12:48:29;2.20;;;1.90;;
6638;SDS011;3355;52.882;8.430;2023-08-06T12:50:57;4.60;;;2.10;;
6638;SDS011;3355;52.882;8.430;2023-08-06T12:53:24;2.63;;;1.73;;
6638;SDS011;3355;52.882;8.430;2023-08-06T12:55:50;2.47;;;1.83;;
6638;SDS011;3355;52.882;8.430;2023-08-06T12:58:17;2.40;;;2.00;;
6638;SDS011;3355;52.882;8.430;2023-08-06T13:00:45;2.60;;;2.00;;
6638;SDS011;3355;52.882;8.430;2023-08-06T13:03:11;2.83;;;1.73;;
6638;SDS011;3355;52.882;8.430;2023-08-06T13:05:38;1.80;;;1.50;;
6638;SDS011;3355;52.882;8.430;2023-08-06T13:08:05;2.50;;;1.63;;
6638;SDS011;3355;52.882;8.430;2023-08-06T13:10:32;2.80;;;1.87;;
6638;SDS011;3355;52.882;8.430;2023-08-06T13:12:58;3.43;;;2.30;;
6638;SDS011;3355;52.882;8.430;2023-08-06T13:15:25;2.50;;;2.13;;
6638;SDS011;3355;52.882;8.430;2023-08-06T13:17:53;2.57;;;2.20;;
6638;SDS011;3355;52.882;8.430;2023-08-06T13:20:22;2.37;;;2.10;;
6638;SDS011;3355;52.882;8.430;2023-08-06T13:22:49;2.30;;;2.10;;
6638;SDS011;3355;52.882;8.430;2023-08-06T13:25:18;2.70;;;2.27;;
6638;SDS011;3355;52.882;8.430;2023-08-06T13:27:45;3.10;;;2.03;;
6638;SDS011;3355;52.882;8.430;2023-08-06T13:30:18;3.07;;;2.57;;
6638;SDS011;3355;52.882;8.430;2023-08-06T13:32:44;2.63;;;2.13;;
6638;SDS011;3355;52.882;8.430;2023-08-06T13:35:12;6.40;;;2.57;;
6638;SDS011;3355;52.882;8.430;2023-08-06T13:37:39;2.83;;;2.30;;
6638;SDS011;3355;52.882;8.430;2023-08-06T13:40:06;3.33;;;2.60;;
6638;SDS011;3355;52.882;8.430;2023-08-06T13:42:34;3.13;;;2.50;;
6638;SDS011;3355;52.882;8.430;2023-08-06T13:45:00;2.33;;;2.07;;
6638;SDS011;3355;52.882;8.430;2023-08-06T13:47:29;3.33;;;2.43;;
6638;SDS011;3355;52.882;8.430;2023-08-06T13:49:55;2.57;;;2.20;;
6638;SDS011;3355;52.882;8.430;2023-08-06T13:52:24;3.20;;;2.70;;
6638;SDS011;3355;52.882;8.430;2023-08-06T13:54:54;3.30;;;2.00;;
6638;SDS011;3355;52.882;8.430;2023-08-06T13:57:21;2.97;;;2.30;;
6638;SDS011;3355;52.882;8.430;2023-08-06T13:59:48;2.23;;;1.40;;
6638;SDS011;3355;52.882;8.430;2023-08-06T14:02:14;2.70;;;2.20;;
6638;SDS011;3355;52.882;8.430;2023-08-06T14:04:41;2.40;;;2.10;;
6638;SDS011;3355;52.882;8.430;2023-08-06T14:07:08;3.00;;;2.40;;
6638;SDS011;3355;52.882;8.430;2023-08-06T14:09:38;2.93;;;1.80;;
6638;SDS011;3355;52.882;8.430;2023-08-06T14:12:07;3.97;;;2.40;;
6638;SDS011;3355;52.882;8.430;2023-08-06T14:14:34;3.33;;;2.50;;
6638;SDS011;3355;52.882;8.430;2023-08-06T14:17:01;2.40;;;1.90;;
6638;SDS011;3355;52.882;8.430;2023-08-06T14:19:27;4.77;;;2.20;;
6638;SDS011;3355;52.882;8.430;2023-08-06T14:21:55;3.60;;;2.17;;
6638;SDS011;3355;52.882;8.430;2023-08-06T14:24:21;2.77;;;2.20;;
6638;SDS011;3355;52.882;8.430;2023-08-06T14:26:49;2.90;;;2.47;;
6638;SDS011;3355;52.882;8.430;2023-08-06T14:29:16;2.87;;;2.43;;
6638;SDS011;3355;52.882;8.430;2023-08-06T14:31:43;2.80;;;2.27;;
6638;SDS011;3355;52.882;8.430;2023-08-06T14:34:10;2.50;;;2.20;;
6638;SDS011;3355;52.882;8.430;2023-08-06T14:36:38;4.03;;;2.40;;
6638;SDS011;3355;52.882;8.430;2023-08-06T14:39:04;4.50;;;2.53;;
6638;SDS011;3355;52.882;8.430;2023-08-06T14:41:31;3.83;;;2.90;;
6638;SDS011;3355;52.882;8.430;2023-08-06T14:43:59;2.70;;;2.37;;
6638;SDS011;3355;52.882;8.430;2023-08-06T14:46:25;3.30;;;2.83;;
6638;SDS011;3355;52.882;8.430;2023-08-06T14:48:52;3.03;;;2.73;;
6638;SDS011;3355;52.882;8.430;2023-08-06T14:51:18;2.97;;;2.67;;
6638;SDS011;3355;52.882;8.430;2023-08-06T14:53:45;4.33;;;2.63;;
6638;SDS011;3355;52.882;8.430;2023-08-06T14:56:12;3.17;;;2.83;;
6638;SDS011;3355;52.882;8.430;2023-08-06T14:58:38;2.83;;;2.47;;
6638;SDS011;3355;52.882;8.430;2023-08-06T15:01:07;2.50;;;2.00;;
6638;SDS011;3355;52.882;8.430;2023-08-06T15:03:33;3.07;;;2.60;;
6638;SDS011;3355;52.882;8.430;2023-08-06T15:06:00;3.30;;;2.63;;
6638;SDS011;3355;52.882;8.430;2023-08-06T15:08:26;2.93;;;2.57;;
6638;SDS011;3355;52.882;8.430;2023-08-06T15:10:53;4.77;;;3.10;;
6638;SDS011;3355;52.882;8.430;2023-08-06T15:13:20;2.73;;;2.50;;
6638;SDS011;3355;52.882;8.430;2023-08-06T15:15:47;2.20;;;2.00;;
6638;SDS011;3355;52.882;8.430;2023-08-06T15:18:15;3.30;;;2.43;;
6638;SDS011;3355;52.882;8.430;2023-08-06T15:20:42;3.80;;;2.40;;
6638;SDS011;3355;52.882;8.430;2023-08-06T15:23:08;4.20;;;2.40;;
6638;SDS011;3355;52.882;8.430;2023-08-06T15:25:35;2.33;;;2.13;;
6638;SDS011;3355;52.882;8.430;2023-08-06T15:28:02;2.40;;;2.03;;
6638;SDS011;3355;52.882;8.430;2023-08-06T15:30:32;3.10;;;2.00;;
6638;SDS011;3355;52.882;8.430;2023-08-06T15:33:02;2.90;;;2.30;;
6638;SDS011;3355;52.882;8.430;2023-08-06T15:35:30;2.73;;;2.20;;
6638;SDS011;3355;52.882;8.430;2023-08-06T15:37:57;4.67;;;2.60;;
6638;SDS011;3355;52.882;8.430;2023-08-06T15:40:24;4.03;;;2.70;;
6638;SDS011;3355;52.882;8.430;2023-08-06T15:42:52;3.07;;;2.50;;
6638;SDS011;3355;52.882;8.430;2023-08-06T15:45:19;5.17;;;2.30;;
6638;SDS011;3355;52.882;8.430;2023-08-06T15:47:45;2.87;;;2.60;;
6638;SDS011;3355;52.882;8.430;2023-08-06T15:50:15;3.50;;;2.40;;
6638;SDS011;3355;52.882;8.430;2023-08-06T15:52:43;2.57;;;2.13;;
6638;SDS011;3355;52.882;8.430;2023-08-06T15:55:10;2.40;;;2.00;;
6638;SDS011;3355;52.882;8.430;2023-08-06T15:57:40;4.07;;;2.10;;
6638;SDS011;3355;52.882;8.430;2023-08-06T16:00:08;3.60;;;2.63;;
6638;SDS011;3355;52.882;8.430;2023-08-06T16:02:36;5.90;;;2.53;;
6638;SDS011;3355;52.882;8.430;2023-08-06T16:05:02;2.20;;;2.00;;
6638;SDS011;3355;52.882;8.430;2023-08-06T16:07:29;2.40;;;2.10;;
6638;SDS011;3355;52.882;8.430;2023-08-06T16:09:57;2.40;;;2.20;;
6638;SDS011;3355;52.882;8.430;2023-08-06T16:12:23;3.87;;;2.60;;
6638;SDS011;3355;52.882;8.430;2023-08-06T16:14:50;4.23;;;2.33;;
6638;SDS011;3355;52.882;8.430;2023-08-06T16:17:17;4.20;;;2.20;;
6638;SDS011;3355;52.882;8.430;2023-08-06T16:19:43;3.50;;;2.70;;
6638;SDS011;3355;52.882;8.430;2023-08-06T16:22:10;3.47;;;2.10;;
6638;SDS011;3355;52.882;8.430;2023-08-06T16:24:36;3.73;;;2.40;;
6638;SDS011;3355;52.882;8.430;2023-08-06T16:27:05;3.07;;;2.50;;
6638;SDS011;3355;52.882;8.430;2023-08-06T16:29:32;4.90;;;2.97;;
6638;SDS011;3355;52.882;8.430;2023-08-06T16:31:59;3.77;;;2.90;;
6638;SDS011;3355;52.882;8.430;2023-08-06T16:34:28;3.13;;;2.83;;
6638;SDS011;3355;52.882;8.430;2023-08-06T16:36:56;2.70;;;2.40;;
6638;SDS011;3355;52.882;8.430;2023-08-06T16:39:23;4.27;;;3.20;;
6638;SDS011;3355;52.882;8.430;2023-08-06T16:41:51;2.97;;;2.67;;
6638;SDS011;3355;52.882;8.430;2023-08-06T16:44:19;3.37;;;2.80;;
6638;SDS011;3355;52.882;8.430;2023-08-06T16:46:45;4.33;;;2.60;;
6638;SDS011;3355;52.882;8.430;2023-08-06T16:49:12;4.23;;;2.80;;
6638;SDS011;3355;52.882;8.430;2023-08-06T16:51:39;4.27;;;3.03;;
6638;SDS011;3355;52.882;8.430;2023-08-06T16:54:05;4.50;;;3.03;;
6638;SDS011;3355;52.882;8.430;2023-08-06T16:56:32;3.13;;;2.80;;
6638;SDS011;3355;52.882;8.430;2023-08-06T16:58:59;3.40;;;2.53;;
6638;SDS011;3355;52.882;8.430;2023-08-06T17:01:27;3.13;;;2.50;;
6638;SDS011;3355;52.882;8.430;2023-08-06T17:03:55;4.00;;;2.53;;
6638;SDS011;3355;52.882;8.430;2023-08-06T17:06:21;4.00;;;2.57;;
6638;SDS011;3355;52.882;8.430;2023-08-06T17:08:48;4.07;;;2.60;;
6638;SDS011;3355;52.882;8.430;2023-08-06T17:11:15;3.00;;;1.73;;
6638;SDS011;3355;52.882;8.430;2023-08-06T17:13:41;2.83;;;2.00;;
6638;SDS011;3355;52.882;8.430;2023-08-06T17:16:08;3.40;;;2.73;;
6638;SDS011;3355;52.882;8.430;2023-08-06T17:18:36;3.60;;;2.67;;